createdAt,value
2022-08-27T00:01:47.616Z,100.00
2022-08-27T00:04:15.837Z,100.00
2022-08-27T00:06:44.073Z,100.00
2022-08-27T00:09:14.048Z,100.00
2022-08-27T00:11:42.071Z,100.00
2022-08-27T00:14:10.028Z,100.00
2022-08-27T00:16:39.423Z,100.00
2022-08-27T00:19:07.666Z,100.00
2022-08-27T00:21:35.672Z,100.00
2022-08-27T00:24:04.339Z,100.00
2022-08-27T00:26:32.847Z,100.00
2022-08-27T00:29:00.983Z,100.00
2022-08-27T00:31:29.351Z,100.00
2022-08-27T00:33:59.429Z,100.00
2022-08-27T00:36:27.381Z,100.00
2022-08-27T00:38:55.471Z,100.00
2022-08-27T00:41:23.884Z,100.00
2022-08-27T00:43:54.568Z,100.00
2022-08-27T00:46:26.516Z,100.00
2022-08-27T00:48:57.727Z,100.00
2022-08-27T00:51:28.461Z,100.00
2022-08-27T00:53:58.932Z,100.00
2022-08-27T00:56:28.612Z,100.00
2022-08-27T00:58:57.889Z,100.00
2022-08-27T01:01:28.673Z,100.00
2022-08-27T01:03:59.609Z,100.00
2022-08-27T01:06:33.419Z,100.00
2022-08-27T01:09:06.255Z,100.00
2022-08-27T01:11:34.610Z,100.00
2022-08-27T01:14:04.007Z,100.00
2022-08-27T01:16:37.297Z,100.00
2022-08-27T01:19:10.525Z,100.00
2022-08-27T01:21:52.050Z,100.00
2022-08-27T01:24:33.934Z,100.00
2022-08-27T01:27:04.153Z,100.00
2022-08-27T01:29:34.698Z,100.00
2022-08-27T01:32:09.511Z,100.00
2022-08-27T01:34:38.427Z,100.00
2022-08-27T01:37:08.894Z,100.00
2022-08-27T01:39:41.244Z,100.00
2022-08-27T01:42:13.017Z,100.00
2022-08-27T01:44:47.607Z,100.00
2022-08-27T01:47:16.653Z,100.00
2022-08-27T01:49:45.141Z,100.00
2022-08-27T01:52:13.755Z,100.00
2022-08-27T01:54:43.227Z,100.00
2022-08-27T01:57:11.406Z,100.00
2022-08-27T01:59:40.234Z,100.00
2022-08-27T02:02:09.538Z,100.00
2022-08-27T02:04:37.761Z,100.00
2022-08-27T02:07:06.714Z,100.00
2022-08-27T02:09:34.740Z,100.00
2022-08-27T02:12:05.303Z,100.00
2022-08-27T02:14:33.103Z,100.00
2022-08-27T02:17:01.770Z,100.00
2022-08-27T02:19:30.245Z,100.00
2022-08-27T02:22:00.417Z,100.00
2022-08-27T02:24:29.357Z,100.00
2022-08-27T02:26:58.834Z,100.00
2022-08-27T02:29:28.200Z,100.00
2022-08-27T02:31:56.356Z,100.00
2022-08-27T02:34:24.609Z,100.00
2022-08-27T02:36:54.539Z,100.00
2022-08-27T02:39:23.020Z,100.00
2022-08-27T02:41:51.198Z,100.00
2022-08-27T02:44:19.151Z,100.00
2022-08-27T02:46:50.057Z,100.00
2022-08-27T02:49:22.728Z,100.00
2022-08-27T02:51:54.689Z,100.00
2022-08-27T02:54:23.771Z,100.00
2022-08-27T02:56:57.138Z,100.00
2022-08-27T02:59:25.323Z,100.00
2022-08-27T03:01:56.154Z,100.00
2022-08-27T03:04:24.519Z,100.00
2022-08-27T03:06:52.447Z,100.00
2022-08-27T03:09:20.567Z,100.00
2022-08-27T03:11:48.854Z,100.00
2022-08-27T03:14:17.004Z,100.00
2022-08-27T03:16:45.041Z,100.00
2022-08-27T03:19:14.648Z,100.00
2022-08-27T03:21:45.005Z,100.00
2022-08-27T03:24:22.904Z,100.00
2022-08-27T03:26:53.753Z,100.00
2022-08-27T03:29:22.339Z,100.00
2022-08-27T03:31:50.504Z,100.00
2022-08-27T03:34:20.299Z,100.00
2022-08-27T03:36:51.569Z,100.00
2022-08-27T03:39:20.159Z,100.00
2022-08-27T03:41:54.745Z,100.00
2022-08-27T03:44:24.629Z,100.00
2022-08-27T03:46:54.491Z,100.00
2022-08-27T03:49:26.464Z,100.00
2022-08-27T04:01:40.582Z,100.00
2022-08-27T04:04:08.841Z,100.00
2022-08-27T04:06:38.569Z,100.00
2022-08-27T04:09:06.743Z,100.00
2022-08-27T04:11:41.265Z,100.00
2022-08-27T04:14:20.728Z,100.00
2022-08-27T04:16:58.244Z,100.00
2022-08-27T04:19:28.553Z,100.00
2022-08-27T04:22:02.075Z,100.00
2022-08-27T04:24:32.474Z,100.00
2022-08-27T04:40:11.365Z,100.00
2022-08-27T04:42:39.694Z,100.00
2022-08-27T04:45:11.499Z,100.00
2022-08-27T04:47:39.499Z,100.00
2022-08-27T04:50:08.089Z,100.00
2022-08-27T04:52:40.860Z,100.00
2022-08-27T04:55:11.388Z,100.00
2022-08-27T04:57:42.127Z,100.00
2022-08-27T05:00:11.437Z,100.00
2022-08-27T05:02:39.568Z,100.00
2022-08-27T05:05:09.806Z,100.00
2022-08-27T05:07:39.265Z,100.00
2022-08-27T05:10:08.211Z,100.00
2022-08-27T05:12:37.595Z,100.00
2022-08-27T05:15:06.583Z,100.00
2022-08-27T05:17:34.843Z,100.00
2022-08-27T05:20:03.123Z,100.00
2022-08-27T05:22:31.154Z,100.00
2022-08-27T05:25:00.006Z,100.00
2022-08-27T05:27:28.432Z,100.00
2022-08-27T05:29:58.020Z,100.00
2022-08-27T05:32:26.090Z,100.00
2022-08-27T05:34:54.172Z,100.00
2022-08-27T05:37:22.272Z,100.00
2022-08-27T05:39:50.481Z,100.00
2022-08-27T05:42:19.641Z,100.00
2022-08-27T05:44:47.755Z,100.00
2022-08-27T05:47:16.927Z,100.00
2022-08-27T05:49:45.524Z,100.00
2022-08-27T05:52:13.666Z,100.00
2022-08-27T05:54:41.592Z,100.00
2022-08-27T05:57:09.771Z,100.00
2022-08-27T05:59:55.558Z,100.00
2022-08-27T06:02:25.625Z,100.00
2022-08-27T06:04:53.797Z,100.00
2022-08-27T06:07:21.994Z,100.00
2022-08-27T06:09:49.928Z,100.00
2022-08-27T06:12:17.847Z,100.00
2022-08-27T06:14:45.944Z,100.00
2022-08-27T06:17:13.962Z,100.00
2022-08-27T06:19:43.370Z,100.00
2022-08-27T06:22:11.220Z,100.00
2022-08-27T06:24:40.528Z,100.00
2022-08-27T06:27:11.278Z,100.00
2022-08-27T06:29:39.706Z,100.00
2022-08-27T06:32:08.869Z,100.00
2022-08-27T06:34:37.832Z,100.00
2022-08-27T06:37:07.506Z,100.00
2022-08-27T06:39:36.264Z,100.00
2022-08-27T06:42:06.288Z,100.00
2022-08-27T06:44:34.867Z,100.00
2022-08-27T06:47:03.800Z,100.00
2022-08-27T06:49:32.017Z,100.00
2022-08-27T06:51:59.961Z,100.00
2022-08-27T06:54:29.234Z,100.00
2022-08-27T06:56:59.348Z,100.00
2022-08-27T06:59:27.752Z,100.00
2022-08-27T07:01:55.652Z,100.00
2022-08-27T07:04:32.240Z,100.00
2022-08-27T07:07:01.862Z,100.00
2022-08-27T07:09:32.540Z,100.00
2022-08-27T07:12:01.670Z,100.00
2022-08-27T07:14:32.949Z,100.00
2022-08-27T07:17:05.354Z,100.00
2022-08-27T07:19:40.791Z,100.00
2022-08-27T07:22:09.377Z,100.00
2022-08-27T07:24:39.129Z,100.00
2022-08-27T07:27:07.539Z,100.00
2022-08-27T07:29:35.506Z,100.00
2022-08-27T07:32:04.051Z,100.00
2022-08-27T07:34:31.907Z,100.00
2022-08-27T07:36:59.722Z,100.00
2022-08-27T07:39:27.619Z,100.00
2022-08-27T07:42:16.315Z,100.00
2022-08-27T07:44:44.309Z,100.00
2022-08-27T07:47:13.706Z,100.00
2022-08-27T07:49:41.820Z,100.00
2022-08-27T07:52:09.890Z,100.00
2022-08-27T07:54:38.350Z,100.00
2022-08-27T07:57:07.728Z,100.00
2022-08-27T07:59:35.609Z,100.00
2022-08-27T08:02:03.659Z,100.00
2022-08-27T08:04:31.647Z,100.00
2022-08-27T08:06:59.572Z,100.00
2022-08-27T08:09:27.442Z,100.00
2022-08-27T08:11:55.471Z,100.00
2022-08-27T08:14:24.813Z,100.00
2022-08-27T08:16:52.770Z,100.00
2022-08-27T08:19:20.657Z,100.00
2022-08-27T08:21:48.938Z,100.00
2022-08-27T08:24:16.775Z,100.00
2022-08-27T08:26:44.670Z,100.00
2022-08-27T08:29:18.046Z,100.00
2022-08-27T08:31:50.370Z,100.00
2022-08-27T08:34:19.587Z,100.00
2022-08-27T08:36:52.410Z,100.00
2022-08-27T08:39:22.554Z,100.00
2022-08-27T08:41:53.437Z,100.00
2022-08-27T08:44:31.117Z,100.00
2022-08-27T08:47:05.159Z,100.00
2022-08-27T08:49:52.265Z,100.00
2022-08-27T08:52:33.452Z,100.00
2022-08-27T08:55:14.534Z,100.00
2022-08-27T08:57:50.213Z,100.00
2022-08-27T09:00:18.067Z,100.00
2022-08-27T09:02:54.570Z,100.00
2022-08-27T09:05:27.595Z,100.00
2022-08-27T09:08:31.857Z,100.00
2022-08-27T09:11:00.827Z,100.00
2022-08-27T09:13:34.102Z,100.00
2022-08-27T09:16:04.959Z,100.00
2022-08-27T09:18:38.028Z,100.00
2022-08-27T09:21:14.040Z,100.00
2022-08-27T09:23:54.663Z,100.00
2022-08-27T09:26:25.123Z,100.00
2022-08-27T09:29:15.038Z,100.00
2022-08-27T09:31:44.414Z,100.00
2022-08-27T09:34:14.327Z,100.00
2022-08-27T09:36:53.419Z,100.00
2022-08-27T09:39:27.159Z,100.00
2022-08-27T09:41:55.108Z,100.00
2022-08-27T09:44:23.586Z,100.00
2022-08-27T09:46:59.760Z,100.00
2022-08-27T09:49:29.768Z,100.00
2022-08-27T09:51:59.054Z,100.00
2022-08-27T09:54:39.074Z,100.00
2022-08-27T09:57:08.750Z,100.00
2022-08-27T09:59:38.242Z,100.00
2022-08-27T10:02:14.821Z,100.00
2022-08-27T10:04:51.398Z,100.00
2022-08-27T10:07:25.414Z,100.00
2022-08-27T10:09:59.588Z,100.00
2022-08-27T10:12:34.144Z,100.00
2022-08-27T10:15:04.959Z,100.00
2022-08-27T10:17:42.074Z,100.00
2022-08-27T10:20:21.944Z,100.00
2022-08-27T10:23:07.006Z,100.00
2022-08-27T10:25:44.097Z,100.00
2022-08-27T10:28:26.563Z,100.00
2022-08-27T10:31:11.107Z,100.00
2022-08-27T10:33:48.557Z,100.00
2022-08-27T10:36:34.111Z,100.00
2022-08-27T10:39:08.786Z,100.00
2022-08-27T10:41:45.548Z,100.00
2022-08-27T10:44:35.702Z,100.00
2022-08-27T10:47:17.563Z,100.00
2022-08-27T10:49:55.331Z,100.00
2022-08-27T10:52:31.973Z,100.00
2022-08-27T10:55:10.605Z,100.00
2022-08-27T10:58:06.810Z,100.00
2022-08-27T11:00:47.632Z,100.00
2022-08-27T11:03:27.371Z,100.00
2022-08-27T11:06:05.903Z,100.00
2022-08-27T11:08:42.615Z,100.00
2022-08-27T11:12:03.247Z,100.00
2022-08-27T11:14:10.054Z,100.00
2022-08-27T11:16:48.207Z,100.00
2022-08-27T11:19:20.446Z,100.00
2022-08-27T11:22:06.377Z,100.00
2022-08-27T11:24:44.348Z,100.00
2022-08-27T11:27:16.031Z,100.00
2022-08-27T11:29:52.331Z,100.00
2022-08-27T11:32:36.915Z,100.00
2022-08-27T11:35:13.480Z,100.00
2022-08-27T11:37:58.642Z,100.00
2022-08-27T11:40:43.403Z,100.00
2022-08-27T11:43:15.957Z,100.00
2022-08-27T11:45:55.637Z,100.00
2022-08-27T11:48:26.238Z,100.00
2022-08-27T11:50:57.278Z,100.00
2022-08-27T11:53:28.975Z,100.00
2022-08-27T11:55:59.279Z,100.00
2022-08-27T11:58:29.188Z,100.00
2022-08-27T12:01:04.350Z,100.00
2022-08-27T12:03:37.035Z,100.00
2022-08-27T12:06:27.724Z,100.00
2022-08-27T12:09:07.888Z,100.00
2022-08-27T12:11:49.564Z,99.52
2022-08-27T12:14:36.040Z,100.00
2022-08-27T12:17:13.228Z,100.00
2022-08-27T12:19:59.710Z,95.64
2022-08-27T12:22:59.317Z,96.39
2022-08-27T12:25:27.650Z,99.85
2022-08-27T12:27:59.679Z,100.00
2022-08-27T12:30:32.283Z,99.65
2022-08-27T12:33:10.880Z,97.50
2022-08-27T12:35:44.849Z,99.59
2022-08-27T12:38:17.742Z,98.93
2022-08-27T12:40:52.054Z,100.00
2022-08-27T12:43:24.786Z,98.61
2022-08-27T12:45:57.911Z,99.03
2022-08-27T12:48:29.577Z,98.80
2022-08-27T12:51:01.970Z,99.07
2022-08-27T12:53:43.463Z,96.96
2022-08-27T12:56:32.703Z,94.30
2022-08-27T12:59:16.105Z,93.46
2022-08-27T13:01:58.071Z,96.20
2022-08-27T13:04:29.207Z,95.02
2022-08-27T13:06:58.342Z,92.42
2022-08-27T13:09:29.543Z,96.52
2022-08-27T13:11:59.657Z,89.24
2022-08-27T13:14:36.409Z,88.05
2022-08-27T13:17:08.610Z,88.15
2022-08-27T13:19:39.027Z,86.96
2022-08-27T13:22:07.864Z,87.12
2022-08-27T13:24:37.331Z,86.71
2022-08-27T13:27:07.304Z,85.24
2022-08-27T13:29:37.312Z,82.78
2022-08-27T13:32:06.189Z,81.36
2022-08-27T13:34:39.189Z,80.89
2022-08-27T13:37:23.111Z,78.12
2022-08-27T13:39:54.439Z,79.80
2022-08-27T13:42:25.224Z,77.56
2022-08-27T13:45:02.518Z,82.10
2022-08-27T13:47:32.104Z,79.81
2022-08-27T13:50:07.766Z,79.92
2022-08-27T13:52:59.390Z,79.20
2022-08-27T13:55:33.349Z,80.92
2022-08-27T13:58:13.194Z,83.74
2022-08-27T14:00:43.302Z,85.43
2022-08-27T14:03:27.353Z,87.42
2022-08-27T14:05:57.163Z,83.55
2022-08-27T14:08:31.864Z,85.68
2022-08-27T14:11:04.771Z,84.04
2022-08-27T14:13:43.987Z,83.61
2022-08-27T14:16:27.971Z,84.92
2022-08-27T14:19:04.091Z,81.82
2022-08-27T14:21:38.149Z,82.32
2022-08-27T14:24:07.125Z,83.38
2022-08-27T14:26:35.643Z,81.39
2022-08-27T14:29:04.185Z,82.61
2022-08-27T14:31:41.913Z,82.08
2022-08-27T14:34:13.492Z,81.64
2022-08-27T14:36:44.387Z,79.16
2022-08-27T14:39:14.117Z,80.02
2022-08-27T14:41:43.153Z,80.24
2022-08-27T14:44:13.611Z,77.87
2022-08-27T14:46:43.712Z,79.27
2022-08-27T14:49:17.548Z,79.54
2022-08-27T14:51:48.348Z,79.16
2022-08-27T14:54:17.830Z,80.68
2022-08-27T14:56:48.138Z,80.04
2022-08-27T14:59:17.469Z,79.46
2022-08-27T15:01:50.198Z,77.38
2022-08-27T15:04:19.910Z,79.86
2022-08-27T15:06:53.053Z,80.58
2022-08-27T15:09:23.288Z,79.46
2022-08-27T15:11:53.087Z,79.34
2022-08-27T15:14:29.159Z,78.51
2022-08-27T15:17:01.169Z,80.20
2022-08-27T15:19:31.611Z,80.14
2022-08-27T15:22:05.681Z,79.00
2022-08-27T15:24:42.744Z,81.24
2022-08-27T15:27:12.418Z,81.13
2022-08-27T15:29:42.246Z,82.83
2022-08-27T15:32:29.618Z,79.05
2022-08-27T15:34:59.828Z,80.12
2022-08-27T15:37:28.805Z,81.27
2022-08-27T15:39:57.314Z,81.52
2022-08-27T15:42:26.967Z,81.33
2022-08-27T15:44:57.489Z,81.67
2022-08-27T15:47:28.631Z,79.42
2022-08-27T15:49:58.746Z,79.34
2022-08-27T15:52:33.427Z,81.40
2022-08-27T15:55:16.166Z,80.60
2022-08-27T15:57:44.275Z,81.72
2022-08-27T16:00:16.411Z,80.31
2022-08-27T16:02:47.231Z,79.86
2022-08-27T16:05:23.607Z,81.30
2022-08-27T16:07:53.585Z,81.00
2022-08-27T16:10:23.017Z,82.13
2022-08-27T16:12:57.245Z,82.66
2022-08-27T16:15:27.774Z,82.05
2022-08-27T16:18:06.272Z,82.25
2022-08-27T16:20:42.481Z,82.84
2022-08-27T16:23:10.901Z,83.45
2022-08-27T16:25:39.323Z,84.60
2022-08-27T16:28:07.701Z,84.48
2022-08-27T16:30:37.943Z,83.77
2022-08-27T16:33:08.153Z,82.93
2022-08-27T16:35:36.560Z,84.58
2022-08-27T16:38:05.829Z,85.29
2022-08-27T16:40:38.497Z,84.67
2022-08-27T16:43:07.621Z,84.86
2022-08-27T16:45:38.568Z,87.08
2022-08-27T16:48:25.959Z,87.02
2022-08-27T16:50:54.065Z,86.45
2022-08-27T16:53:22.987Z,87.95
2022-08-27T16:55:52.003Z,87.06
2022-08-27T16:58:22.176Z,87.68
2022-08-27T17:00:52.678Z,88.18
2022-08-27T17:03:23.879Z,88.32
2022-08-27T17:05:52.687Z,89.30
2022-08-27T17:08:26.081Z,91.58
2022-08-27T17:10:55.490Z,91.43
2022-08-27T17:13:28.421Z,91.60
2022-08-27T17:15:57.739Z,91.60
2022-08-27T17:18:28.284Z,92.52
2022-08-27T17:20:58.422Z,90.46
2022-08-27T17:23:31.830Z,92.10
2022-08-27T17:26:00.084Z,89.97
2022-08-27T17:28:28.295Z,89.83
2022-08-27T17:30:57.434Z,89.92
2022-08-27T17:33:31.140Z,90.88
2022-08-27T17:36:00.047Z,91.50
2022-08-27T17:38:28.184Z,91.26
2022-08-27T17:40:57.154Z,88.94
2022-08-27T17:43:25.637Z,89.95
2022-08-27T17:45:53.980Z,91.30
2022-08-27T17:48:26.437Z,91.54
2022-08-27T17:50:56.182Z,91.94
2022-08-27T17:53:25.518Z,93.00
2022-08-27T17:55:53.485Z,91.76
2022-08-27T17:58:23.162Z,92.19
2022-08-27T18:00:55.259Z,93.77
2022-08-27T18:03:27.240Z,93.86
2022-08-27T18:05:59.815Z,93.09
2022-08-27T18:08:28.367Z,93.96
2022-08-27T18:10:57.206Z,93.62
2022-08-27T18:13:25.891Z,94.64
2022-08-27T18:15:54.022Z,94.14
2022-08-27T18:18:22.076Z,95.21
2022-08-27T18:20:51.573Z,95.31
2022-08-27T18:23:21.924Z,96.39
2022-08-27T18:25:51.195Z,94.76
2022-08-27T18:28:22.284Z,93.82
2022-08-27T18:30:51.367Z,95.92
2022-08-27T18:33:19.845Z,95.59
2022-08-27T18:35:48.133Z,95.42
2022-08-27T18:38:17.476Z,96.26
2022-08-27T18:40:49.875Z,95.55
2022-08-27T18:43:22.715Z,96.64
2022-08-27T18:45:50.782Z,97.87
2022-08-27T18:48:22.511Z,97.05
2022-08-27T18:50:53.522Z,97.42
2022-08-27T18:53:22.428Z,97.13
2022-08-27T18:55:52.504Z,98.03
2022-08-27T18:58:20.937Z,97.34
2022-08-27T19:00:53.100Z,97.84
2022-08-27T19:03:29.241Z,97.65
2022-08-27T19:06:00.677Z,99.30
2022-08-27T19:08:36.531Z,99.69
2022-08-27T19:15:31.851Z,100.00
2022-08-27T19:18:16.862Z,99.14
2022-08-27T19:21:05.338Z,99.07
2022-08-27T19:23:38.851Z,99.36
2022-08-27T19:26:30.953Z,100.00
2022-08-27T19:29:10.966Z,100.00
2022-08-27T19:32:17.798Z,100.00
2022-08-27T19:38:08.713Z,100.00
2022-08-27T19:47:44.362Z,100.00
2022-08-27T20:00:58.187Z,100.00
2022-08-27T20:04:02.120Z,100.00
2022-08-27T20:07:36.505Z,100.00
2022-08-27T20:10:12.473Z,100.00
2022-08-27T20:12:43.224Z,100.00
2022-08-27T20:15:26.011Z,100.00
2022-08-27T20:18:15.380Z,100.00
2022-08-27T20:24:03.451Z,100.00
2022-08-27T20:39:39.581Z,100.00
2022-08-27T20:51:14.958Z,98.48
2022-08-27T20:54:01.781Z,99.79
2022-08-27T20:56:43.108Z,100.00
2022-08-27T21:00:22.827Z,100.00
2022-08-27T21:06:30.934Z,99.69
2022-08-27T21:09:14.257Z,98.90
2022-08-27T21:11:46.754Z,100.00
2022-08-27T21:14:17.460Z,99.87
2022-08-27T21:16:50.595Z,100.00
2022-08-27T21:19:22.733Z,100.00
2022-08-27T21:21:51.895Z,100.00
2022-08-27T21:24:22.970Z,98.94
2022-08-27T21:26:58.565Z,98.99
2022-08-27T21:29:31.800Z,100.00
2022-08-27T21:32:09.694Z,100.00
2022-08-27T21:34:47.299Z,100.00
2022-08-27T21:37:21.427Z,100.00
2022-08-27T21:41:06.404Z,100.00
2022-08-27T21:44:37.548Z,100.00
2022-08-27T21:48:11.758Z,100.00
2022-08-27T21:51:24.711Z,100.00
2022-08-27T22:07:10.777Z,100.00
2022-08-27T22:09:40.690Z,100.00
2022-08-27T22:12:10.953Z,100.00
2022-08-27T22:14:41.059Z,100.00
2022-08-27T22:17:11.132Z,99.85
2022-08-27T22:19:50.393Z,99.46
2022-08-27T22:22:30.705Z,99.10
2022-08-27T22:25:07.664Z,99.22
2022-08-27T22:27:37.634Z,98.87
2022-08-27T22:30:11.141Z,97.18
2022-08-27T22:32:44.208Z,97.13
2022-08-27T22:35:16.541Z,98.40
2022-08-27T22:37:47.415Z,99.29
2022-08-27T22:40:21.360Z,98.89
2022-08-27T22:42:53.955Z,98.16
2022-08-27T22:45:24.137Z,98.40
2022-08-27T22:47:54.879Z,99.20
2022-08-27T22:50:25.528Z,99.62
2022-08-27T22:52:57.804Z,99.05
2022-08-27T22:55:28.951Z,99.90
2022-08-27T22:57:59.846Z,99.55
2022-08-27T23:00:34.547Z,99.74
2022-08-27T23:03:07.056Z,99.37
2022-08-27T23:05:40.386Z,99.72
2022-08-27T23:08:14.515Z,100.00
2022-08-27T23:10:45.276Z,100.00
2022-08-27T23:13:14.506Z,97.92
2022-08-27T23:15:45.838Z,99.07
2022-08-27T23:18:33.757Z,100.00
2022-08-27T23:21:08.221Z,100.00
2022-08-27T23:23:41.135Z,100.00
2022-08-27T23:26:27.914Z,100.00
2022-08-27T23:28:57.008Z,100.00
2022-08-27T23:31:29.695Z,100.00
2022-08-27T23:33:58.972Z,100.00
2022-08-27T23:36:29.831Z,100.00
2022-08-27T23:39:01.865Z,100.00
2022-08-27T23:41:32.128Z,100.00
2022-08-27T23:44:04.381Z,100.00
2022-08-27T23:46:33.575Z,100.00
2022-08-27T23:49:02.702Z,100.00
2022-08-27T23:51:32.702Z,100.00
2022-08-27T23:54:03.973Z,100.00
2022-08-27T23:56:36.135Z,100.00
2022-08-27T23:59:05.939Z,100.00
